createdAt,value
2018-05-11T00:01:12.986Z,17.28
2018-05-11T00:06:15.032Z,17.26
2018-05-11T00:11:16.367Z,17.14
2018-05-11T00:16:17.694Z,17.05
2018-05-11T00:21:19.007Z,16.90
2018-05-11T00:26:20.311Z,16.78
2018-05-11T00:31:21.616Z,16.60
2018-05-11T00:36:22.930Z,16.59
2018-05-11T00:41:24.984Z,16.57
2018-05-11T00:46:26.302Z,16.60
2018-05-11T00:51:27.619Z,16.63
2018-05-11T00:56:29.658Z,16.61
2018-05-11T01:01:31.118Z,16.57
2018-05-11T01:06:33.177Z,16.65
2018-05-11T01:11:34.498Z,16.86
2018-05-11T01:16:35.814Z,17.02
2018-05-11T01:21:37.861Z,17.24
2018-05-11T01:26:39.193Z,17.29
2018-05-11T01:31:41.254Z,17.33
2018-05-11T01:36:42.573Z,17.25
2018-05-11T01:41:43.889Z,17.31
2018-05-11T01:46:45.942Z,17.27
2018-05-11T01:51:47.270Z,17.31
2018-05-11T01:56:49.383Z,17.33
2018-05-11T02:01:51.474Z,17.29
2018-05-11T02:06:52.806Z,17.24
2018-05-11T02:11:54.130Z,17.12
2018-05-11T02:16:55.449Z,17.24
2018-05-11T02:21:56.757Z,17.17
2018-05-11T02:26:58.807Z,17.05
2018-05-11T02:32:00.105Z,17.05
2018-05-11T02:37:01.411Z,16.99
2018-05-11T02:42:02.746Z,17.10
2018-05-11T02:47:04.097Z,17.03
2018-05-11T02:52:05.464Z,17.25
2018-05-11T02:57:06.798Z,17.21
2018-05-11T03:02:08.873Z,17.27
2018-05-11T03:07:10.186Z,17.24
2018-05-11T03:12:12.256Z,17.28
2018-05-11T03:17:13.566Z,17.24
2018-05-11T03:22:14.889Z,17.13
2018-05-11T03:27:16.226Z,17.20
2018-05-11T03:32:17.541Z,17.22
2018-05-11T03:37:18.873Z,17.30
2018-05-11T03:42:20.194Z,17.09
2018-05-11T03:47:21.502Z,17.13
2018-05-11T03:52:22.826Z,17.04
2018-05-11T03:57:24.145Z,16.82
2018-05-11T04:02:43.957Z,16.68
2018-05-11T04:08:03.842Z,16.65
2018-05-11T04:13:05.967Z,16.54
2018-05-11T04:18:08.043Z,16.37
2018-05-11T04:23:09.348Z,16.31
2018-05-11T04:28:11.398Z,16.26
2018-05-11T04:33:12.705Z,16.21
2018-05-11T04:38:13.993Z,16.16
2018-05-11T04:43:15.309Z,16.12
2018-05-11T04:48:16.606Z,16.25
2018-05-11T04:53:18.668Z,16.12
2018-05-11T04:58:20.001Z,16.35
2018-05-11T05:03:21.334Z,16.32
2018-05-11T05:08:22.656Z,16.54
2018-05-11T05:13:23.962Z,16.55
2018-05-11T05:18:25.270Z,16.75
2018-05-11T05:23:27.386Z,16.74
2018-05-11T05:28:29.482Z,16.61
2018-05-11T05:33:31.613Z,16.63
2018-05-11T05:38:32.923Z,16.64
2018-05-11T05:43:34.753Z,16.54
2018-05-11T05:48:36.102Z,16.54
2018-05-11T05:53:37.454Z,16.65
2018-05-11T05:58:39.518Z,16.79
2018-05-11T06:03:44.292Z,16.94
2018-05-11T06:08:45.719Z,16.97
2018-05-11T06:13:47.018Z,17.15
2018-05-11T06:18:49.088Z,17.19
2018-05-11T06:23:50.523Z,17.14
2018-05-11T06:28:52.637Z,17.35
2018-05-11T06:33:54.689Z,17.32
2018-05-11T06:38:56.043Z,17.56
2018-05-11T06:43:58.485Z,18.22
2018-05-11T06:48:59.835Z,18.39
2018-05-11T06:54:01.898Z,18.38
2018-05-11T06:59:03.295Z,18.56
2018-05-11T07:04:04.602Z,18.75
2018-05-11T07:09:05.908Z,18.95
2018-05-11T07:14:07.972Z,19.02
2018-05-11T07:19:09.310Z,19.41
2018-05-11T07:24:11.378Z,19.47
2018-05-11T07:29:12.734Z,19.49
2018-05-11T07:34:14.081Z,19.72
2018-05-11T07:39:15.423Z,19.98
2018-05-11T07:44:16.757Z,19.84
2018-05-11T07:49:18.126Z,20.21
2018-05-11T07:54:19.461Z,20.36
2018-05-11T07:59:20.785Z,20.61
2018-05-11T08:04:22.255Z,20.79
2018-05-11T08:09:23.647Z,20.37
2018-05-11T08:14:25.038Z,19.97
2018-05-11T08:19:26.578Z,19.43
2018-05-11T08:24:27.983Z,19.71
2018-05-11T08:29:29.324Z,19.70
2018-05-11T08:34:30.663Z,20.11
2018-05-11T08:39:31.975Z,20.80
2018-05-11T08:44:34.147Z,21.35
2018-05-11T08:49:36.241Z,21.22
2018-05-11T08:54:37.566Z,21.10
2018-05-11T08:59:38.918Z,21.35
2018-05-11T09:04:40.342Z,21.40
2018-05-11T09:09:42.422Z,21.72
2018-05-11T09:14:44.225Z,21.47
2018-05-11T09:19:46.342Z,21.36
2018-05-11T09:24:49.721Z,22.39
2018-05-11T09:29:51.065Z,22.98
2018-05-11T09:34:52.654Z,22.42
2018-05-11T09:39:55.066Z,22.94
2018-05-11T09:44:58.271Z,23.36
2018-05-11T09:49:59.893Z,23.94
2018-05-11T09:55:01.913Z,23.88
2018-05-11T10:00:03.255Z,23.65
2018-05-11T10:05:04.575Z,23.68
2018-05-11T10:10:06.224Z,23.82
2018-05-11T10:15:08.646Z,24.07
2018-05-11T10:20:10.374Z,24.19
2018-05-11T10:25:11.779Z,24.16
2018-05-11T10:30:13.111Z,24.46
2018-05-11T10:35:15.274Z,24.46
2018-05-11T10:40:16.615Z,23.38
2018-05-11T10:45:18.733Z,23.14
2018-05-11T10:50:20.823Z,24.33
2018-05-11T10:55:22.906Z,24.86
2018-05-11T11:00:24.251Z,25.18
2018-05-11T11:05:25.590Z,24.40
2018-05-11T11:10:27.019Z,23.52
2018-05-11T11:15:29.085Z,23.76
2018-05-11T11:20:30.516Z,24.59
2018-05-11T11:25:32.096Z,24.91
2018-05-11T11:30:34.177Z,25.18
2018-05-11T11:35:35.582Z,24.95
2018-05-11T11:40:36.955Z,25.39
2018-05-11T11:45:38.403Z,26.03
2018-05-11T11:50:39.808Z,26.76
2018-05-11T11:55:41.206Z,26.50
2018-05-11T12:00:42.554Z,26.69
2018-05-11T12:05:44.954Z,26.91
2018-05-11T12:10:47.019Z,26.38
2018-05-11T12:15:49.463Z,26.48
2018-05-11T12:20:51.566Z,26.36
2018-05-11T12:25:52.955Z,25.98
2018-05-11T12:30:54.307Z,25.76
2018-05-11T12:35:55.646Z,26.54
2018-05-11T12:40:57.772Z,26.59
2018-05-11T12:45:59.880Z,26.32
2018-05-11T12:51:02.040Z,25.45
2018-05-11T12:56:03.412Z,24.66
2018-05-11T13:01:04.788Z,24.30
2018-05-11T13:06:06.116Z,23.79
2018-05-11T13:11:07.468Z,23.80
2018-05-11T13:16:08.833Z,24.18
2018-05-11T13:21:10.942Z,25.00
2018-05-11T13:26:13.130Z,25.34
2018-05-11T13:31:14.536Z,25.48
2018-05-11T13:36:15.995Z,25.78
2018-05-11T13:41:18.003Z,26.19
2018-05-11T13:46:19.336Z,26.37
2018-05-11T13:51:20.711Z,25.75
2018-05-11T13:56:22.796Z,26.10
2018-05-11T14:01:24.165Z,26.29
2018-05-11T14:06:25.517Z,26.15
2018-05-11T14:11:26.844Z,25.34
2018-05-11T14:16:28.154Z,24.88
2018-05-11T14:21:29.463Z,25.51
2018-05-11T14:26:31.565Z,25.07
2018-05-11T14:31:32.887Z,24.31
2018-05-11T14:36:34.232Z,24.86
2018-05-11T14:41:35.591Z,25.62
2018-05-11T14:46:36.931Z,25.49
2018-05-11T14:51:39.363Z,25.31
2018-05-11T14:56:40.802Z,25.04
2018-05-11T15:01:42.137Z,25.44
2018-05-11T15:06:44.305Z,24.64
2018-05-11T15:11:45.653Z,24.65
2018-05-11T15:16:47.012Z,24.76
2018-05-11T15:21:48.350Z,24.49
2018-05-11T15:26:49.670Z,24.07
2018-05-11T15:31:51.082Z,23.63
2018-05-11T15:36:52.386Z,23.73
2018-05-11T15:41:54.478Z,24.02
2018-05-11T15:46:55.831Z,23.84
2018-05-11T15:51:57.166Z,23.86
2018-05-11T15:56:58.490Z,23.54
2018-05-11T16:02:00.621Z,23.18
2018-05-11T16:07:02.072Z,23.92
2018-05-11T16:12:03.452Z,24.26
2018-05-11T16:17:04.826Z,23.82
2018-05-11T16:22:06.142Z,23.73
2018-05-11T16:27:08.247Z,24.14
2018-05-11T16:32:11.854Z,24.22
2018-05-11T16:37:13.206Z,24.29
2018-05-11T16:42:14.709Z,24.27
2018-05-11T16:47:16.114Z,24.58
2018-05-11T16:52:17.462Z,24.50
2018-05-11T16:57:19.571Z,23.94
2018-05-11T17:02:21.653Z,23.73
2018-05-11T17:07:23.198Z,23.39
2018-05-11T17:12:24.687Z,23.19
2018-05-11T17:17:26.051Z,23.33
2018-05-11T17:22:27.444Z,23.30
2018-05-11T17:27:28.842Z,23.03
2018-05-11T17:32:30.209Z,22.98
2018-05-11T17:37:31.553Z,22.96
2018-05-11T17:42:33.612Z,22.81
2018-05-11T17:47:34.976Z,22.88
2018-05-11T17:52:36.308Z,22.94
2018-05-11T17:57:38.233Z,22.79
2018-05-11T18:02:39.599Z,22.68
2018-05-11T18:07:41.093Z,22.64
2018-05-11T18:12:42.655Z,22.37
2018-05-11T18:17:44.248Z,22.19
2018-05-11T18:22:45.652Z,22.29
2018-05-11T18:27:48.422Z,22.22
2018-05-11T18:32:50.143Z,22.19
2018-05-11T18:37:51.902Z,22.09
2018-05-11T18:42:54.119Z,21.98
2018-05-11T18:47:55.758Z,21.85
2018-05-11T18:52:57.419Z,21.65
2018-05-11T18:57:59.527Z,21.63
2018-05-11T19:03:01.643Z,21.43
2018-05-11T19:08:03.772Z,21.40
2018-05-11T19:13:05.177Z,21.28
2018-05-11T19:18:06.527Z,21.09
2018-05-11T19:23:07.922Z,21.18
2018-05-11T19:28:10.545Z,21.21
2018-05-11T19:33:11.969Z,20.86
2018-05-11T19:38:13.372Z,20.77
2018-05-11T19:43:14.741Z,20.75
2018-05-11T19:48:16.105Z,20.77
2018-05-11T19:53:19.239Z,20.84
2018-05-11T19:58:21.463Z,20.84
2018-05-11T20:03:22.902Z,20.85
2018-05-11T20:08:24.275Z,20.69
2018-05-11T20:13:25.642Z,20.81
2018-05-11T20:18:27.537Z,20.73
2018-05-11T20:23:28.916Z,20.57
2018-05-11T20:28:31.030Z,20.52
2018-05-11T20:33:32.568Z,20.30
2018-05-11T20:38:34.907Z,20.34
2018-05-11T20:43:36.301Z,20.41
2018-05-11T20:48:37.674Z,20.49
2018-05-11T20:53:39.006Z,20.71
2018-05-11T20:58:41.741Z,20.73
2018-05-11T21:03:43.130Z,20.47
2018-05-11T21:08:44.552Z,20.33
2018-05-11T21:13:45.933Z,20.44
2018-05-11T21:18:47.331Z,20.41
2018-05-11T21:23:48.697Z,20.25
2018-05-11T21:28:50.149Z,20.38
2018-05-11T21:33:51.592Z,20.20
2018-05-11T21:38:52.984Z,20.03
2018-05-11T21:43:54.346Z,19.92
2018-05-11T21:48:56.479Z,19.86
2018-05-11T21:53:57.835Z,19.81
2018-05-11T21:58:59.200Z,19.61
2018-05-11T22:04:01.555Z,19.54
2018-05-11T22:09:03.023Z,19.55
2018-05-11T22:14:05.869Z,19.45
2018-05-11T22:19:07.231Z,19.59
2018-05-11T22:24:09.947Z,19.70
2018-05-11T22:29:11.393Z,19.87
2018-05-11T22:34:12.758Z,19.63
2018-05-11T22:39:14.128Z,19.50
2018-05-11T22:44:15.487Z,19.52
2018-05-11T22:49:16.933Z,19.57
2018-05-11T22:54:19.047Z,19.73
2018-05-11T22:59:20.362Z,19.85
2018-05-11T23:04:21.726Z,19.90
2018-05-11T23:09:23.137Z,19.57
2018-05-11T23:14:24.498Z,19.51
2018-05-11T23:19:26.565Z,19.47
2018-05-11T23:24:28.141Z,19.75
2018-05-11T23:29:31.556Z,19.84
2018-05-11T23:34:32.903Z,19.62
2018-05-11T23:39:34.225Z,19.69
2018-05-11T23:44:36.296Z,19.91
2018-05-11T23:49:37.666Z,20.02
2018-05-11T23:54:38.974Z,19.59
2018-05-11T23:59:40.306Z,19.55
